sensor_id;sensor_type;location;lat;lon;timestamp;pressure;altitude;pressure_sealevel;temperature;humidity
3122;BME280;1571;52.524;14.104;2022-11-15T00:00:26;101148.72;;;2.54;100.00
3122;BME280;1571;52.524;14.104;2022-11-15T00:03:14;101149.69;;;2.49;100.00
3122;BME280;1571;52.524;14.104;2022-11-15T00:06:02;101144.44;;;2.49;100.00
3122;BME280;1571;52.524;14.104;2022-11-15T00:08:49;101148.91;;;2.46;100.00
3122;BME280;1571;52.524;14.104;2022-11-15T00:11:37;101145.28;;;2.52;100.00
3122;BME280;1571;52.524;14.104;2022-11-15T00:14:24;101138.25;;;2.52;100.00
3122;BME280;1571;52.524;14.104;2022-11-15T00:17:10;101140.88;;;2.52;100.00
3122;BME280;1571;52.524;14.104;2022-11-15T00:19:57;101142.66;;;2.52;100.00
3122;BME280;1571;52.524;14.104;2022-11-15T00:22:44;101143.66;;;2.46;100.00
3122;BME280;1571;52.524;14.104;2022-11-15T00:25:31;101138.53;;;2.41;100.00
3122;BME280;1571;52.524;14.104;2022-11-15T00:28:20;101133.09;;;2.49;100.00
3122;BME280;1571;52.524;14.104;2022-11-15T00:31:10;101137.69;;;2.39;100.00
3122;BME280;1571;52.524;14.104;2022-11-15T00:33:58;101134.22;;;2.39;100.00
3122;BME280;1571;52.524;14.104;2022-11-15T00:36:44;101134.50;;;2.25;100.00
3122;BME280;1571;52.524;14.104;2022-11-15T00:39:31;101121.44;;;2.23;100.00
3122;BME280;1571;52.524;14.104;2022-11-15T00:42:18;101130.19;;;2.22;100.00
3122;BME280;1571;52.524;14.104;2022-11-15T00:45:07;101135.59;;;2.16;100.00
3122;BME280;1571;52.524;14.104;2022-11-15T00:47:54;101127.00;;;2.08;100.00
3122;BME280;1571;52.524;14.104;2022-11-15T00:50:41;101121.84;;;2.05;100.00
3122;BME280;1571;52.524;14.104;2022-11-15T00:53:28;101128.19;;;1.93;100.00
3122;BME280;1571;52.524;14.104;2022-11-15T00:56:15;101126.94;;;2.11;100.00
3122;BME280;1571;52.524;14.104;2022-11-15T00:59:02;101120.31;;;1.95;100.00
3122;BME280;1571;52.524;14.104;2022-11-15T01:01:50;101117.69;;;1.95;100.00
3122;BME280;1571;52.524;14.104;2022-11-15T01:04:37;101110.03;;;1.85;100.00
3122;BME280;1571;52.524;14.104;2022-11-15T01:07:24;101103.75;;;1.93;100.00
3122;BME280;1571;52.524;14.104;2022-11-15T01:10:11;101100.47;;;1.83;100.00
3122;BME280;1571;52.524;14.104;2022-11-15T01:12:57;101098.69;;;1.85;100.00
3122;BME280;1571;52.524;14.104;2022-11-15T01:15:44;101094.75;;;1.64;100.00
3122;BME280;1571;52.524;14.104;2022-11-15T01:18:32;101091.78;;;1.82;100.00
3122;BME280;1571;52.524;14.104;2022-11-15T01:21:19;101084.69;;;1.87;100.00
3122;BME280;1571;52.524;14.104;2022-11-15T01:24:07;101076.09;;;1.81;100.00
3122;BME280;1571;52.524;14.104;2022-11-15T01:26:54;101072.75;;;1.73;100.00
3122;BME280;1571;52.524;14.104;2022-11-15T01:29:40;101068.72;;;1.58;100.00
3122;BME280;1571;52.524;14.104;2022-11-15T01:32:27;101062.78;;;1.48;100.00
3122;BME280;1571;52.524;14.104;2022-11-15T01:35:15;101056.44;;;1.60;100.00
3122;BME280;1571;52.524;14.104;2022-11-15T01:38:02;101057.25;;;1.63;100.00
3122;BME280;1571;52.524;14.104;2022-11-15T01:40:48;101046.78;;;1.62;100.00
3122;BME280;1571;52.524;14.104;2022-11-15T01:43:36;101059.88;;;1.62;100.00
3122;BME280;1571;52.524;14.104;2022-11-15T01:46:29;101052.09;;;1.60;100.00
3122;BME280;1571;52.524;14.104;2022-11-15T01:49:19;101058.38;;;1.50;100.00
3122;BME280;1571;52.524;14.104;2022-11-15T01:52:10;101046.03;;;1.57;100.00
3122;BME280;1571;52.524;14.104;2022-11-15T01:55:03;101041.72;;;1.56;100.00
3122;BME280;1571;52.524;14.104;2022-11-15T01:57:53;101033.91;;;1.53;100.00
3122;BME280;1571;52.524;14.104;2022-11-15T02:00:41;101030.59;;;1.44;100.00
3122;BME280;1571;52.524;14.104;2022-11-15T02:03:34;101032.41;;;1.39;100.00
3122;BME280;1571;52.524;14.104;2022-11-15T02:06:23;101028.25;;;1.31;100.00
3122;BME280;1571;52.524;14.104;2022-11-15T02:09:12;101015.97;;;1.34;100.00
3122;BME280;1571;52.524;14.104;2022-11-15T02:11:59;101021.78;;;1.49;100.00
3122;BME280;1571;52.524;14.104;2022-11-15T02:14:48;101022.66;;;1.49;100.00
3122;BME280;1571;52.524;14.104;2022-11-15T02:17:49;101011.19;;;1.55;100.00
3122;BME280;1571;52.524;14.104;2022-11-15T02:20:54;101005.31;;;1.43;100.00
3122;BME280;1571;52.524;14.104;2022-11-15T02:24:07;101009.41;;;1.55;100.00
3122;BME280;1571;52.524;14.104;2022-11-15T02:27:31;100996.97;;;1.24;100.00
3122;BME280;1571;52.524;14.104;2022-11-15T02:30:30;100993.91;;;1.48;100.00
3122;BME280;1571;52.524;14.104;2022-11-15T02:33:28;100989.63;;;1.43;100.00
3122;BME280;1571;52.524;14.104;2022-11-15T02:36:29;100993.50;;;1.66;100.00
3122;BME280;1571;52.524;14.104;2022-11-15T02:39:23;100989.00;;;1.71;100.00
3122;BME280;1571;52.524;14.104;2022-11-15T02:42:15;100984.03;;;1.60;100.00
3122;BME280;1571;52.524;14.104;2022-11-15T02:45:26;100985.59;;;1.69;100.00
3122;BME280;1571;52.524;14.104;2022-11-15T02:48:15;100985.50;;;1.74;100.00
3122;BME280;1571;52.524;14.104;2022-11-15T02:51:04;100978.72;;;1.63;100.00
3122;BME280;1571;52.524;14.104;2022-11-15T02:53:50;100977.06;;;1.59;100.00
3122;BME280;1571;52.524;14.104;2022-11-15T02:56:37;100977.59;;;1.75;100.00
3122;BME280;1571;52.524;14.104;2022-11-15T02:59:43;100980.91;;;1.83;100.00
3122;BME280;1571;52.524;14.104;2022-11-15T03:02:57;100984.03;;;1.99;100.00
3122;BME280;1571;52.524;14.104;2022-11-15T03:05:53;100980.69;;;1.93;100.00
3122;BME280;1571;52.524;14.104;2022-11-15T03:08:51;100976.97;;;2.03;100.00
3122;BME280;1571;52.524;14.104;2022-11-15T03:11:44;100987.25;;;2.11;100.00
3122;BME280;1571;52.524;14.104;2022-11-15T03:14:34;100986.16;;;2.21;100.00
3122;BME280;1571;52.524;14.104;2022-11-15T03:17:24;100985.06;;;2.29;100.00
3122;BME280;1571;52.524;14.104;2022-11-15T03:20:15;100980.88;;;2.22;100.00
3122;BME280;1571;52.524;14.104;2022-11-15T03:23:05;100997.50;;;2.21;100.00
3122;BME280;1571;52.524;14.104;2022-11-15T03:25:54;100997.38;;;2.27;100.00
3122;BME280;1571;52.524;14.104;2022-11-15T03:28:49;100998.09;;;2.33;100.00
3122;BME280;1571;52.524;14.104;2022-11-15T03:31:39;101002.75;;;2.20;100.00
3122;BME280;1571;52.524;14.104;2022-11-15T03:34:39;100984.50;;;2.17;100.00
3122;BME280;1571;52.524;14.104;2022-11-15T03:37:33;100989.69;;;2.18;100.00
3122;BME280;1571;52.524;14.104;2022-11-15T03:40:25;100986.41;;;2.10;100.00
3122;BME280;1571;52.524;14.104;2022-11-15T03:43:26;100993.44;;;2.08;100.00
3122;BME280;1571;52.524;14.104;2022-11-15T03:46:21;100994.19;;;2.13;100.00
3122;BME280;1571;52.524;14.104;2022-11-15T03:49:14;100995.22;;;2.06;100.00
3122;BME280;1571;52.524;14.104;2022-11-15T03:52:03;100990.94;;;2.03;100.00
3122;BME280;1571;52.524;14.104;2022-11-15T03:54:54;100992.69;;;2.03;100.00
3122;BME280;1571;52.524;14.104;2022-11-15T03:57:41;100994.16;;;2.15;100.00
3122;BME280;1571;52.524;14.104;2022-11-15T04:00:28;100987.88;;;2.22;100.00
3122;BME280;1571;52.524;14.104;2022-11-15T04:03:15;100997.00;;;2.05;100.00
3122;BME280;1571;52.524;14.104;2022-11-15T04:06:02;100994.06;;;2.19;100.00
3122;BME280;1571;52.524;14.104;2022-11-15T04:08:48;100985.94;;;2.30;100.00
3122;BME280;1571;52.524;14.104;2022-11-15T04:11:36;100985.00;;;2.33;100.00
3122;BME280;1571;52.524;14.104;2022-11-15T04:14:23;100989.44;;;2.29;100.00
3122;BME280;1571;52.524;14.104;2022-11-15T04:17:09;100988.28;;;2.41;100.00
3122;BME280;1571;52.524;14.104;2022-11-15T04:19:56;100989.22;;;2.38;100.00
3122;BME280;1571;52.524;14.104;2022-11-15T04:23:02;100988.22;;;2.44;100.00
3122;BME280;1571;52.524;14.104;2022-11-15T04:26:10;100990.59;;;2.53;100.00
3122;BME280;1571;52.524;14.104;2022-11-15T04:28:59;100995.72;;;2.58;100.00
3122;BME280;1571;52.524;14.104;2022-11-15T04:32:05;100989.63;;;2.57;100.00
3122;BME280;1571;52.524;14.104;2022-11-15T04:34:52;100985.59;;;2.44;100.00
3122;BME280;1571;52.524;14.104;2022-11-15T04:37:38;100985.41;;;2.52;100.00
3122;BME280;1571;52.524;14.104;2022-11-15T04:40:32;100978.97;;;2.63;100.00
3122;BME280;1571;52.524;14.104;2022-11-15T04:43:19;100976.72;;;2.49;100.00
3122;BME280;1571;52.524;14.104;2022-11-15T04:46:08;100982.00;;;2.48;100.00
3122;BME280;1571;52.524;14.104;2022-11-15T04:48:55;100978.22;;;2.60;100.00
3122;BME280;1571;52.524;14.104;2022-11-15T04:51:44;100976.03;;;2.76;100.00
3122;BME280;1571;52.524;14.104;2022-11-15T04:54:31;100962.00;;;2.78;100.00
3122;BME280;1571;52.524;14.104;2022-11-15T04:57:18;100957.09;;;2.66;100.00
3122;BME280;1571;52.524;14.104;2022-11-15T05:00:07;100956.28;;;2.62;100.00
3122;BME280;1571;52.524;14.104;2022-11-15T05:02:55;100951.25;;;2.55;100.00
3122;BME280;1571;52.524;14.104;2022-11-15T05:06:00;100944.25;;;2.55;100.00
3122;BME280;1571;52.524;14.104;2022-11-15T05:08:47;100952.28;;;2.47;100.00
3122;BME280;1571;52.524;14.104;2022-11-15T05:11:34;100944.66;;;2.38;100.00
3122;BME280;1571;52.524;14.104;2022-11-15T05:14:21;100941.19;;;2.38;100.00
3122;BME280;1571;52.524;14.104;2022-11-15T05:17:08;100946.69;;;2.27;100.00
3122;BME280;1571;52.524;14.104;2022-11-15T05:19:56;100940.47;;;2.33;100.00
3122;BME280;1571;52.524;14.104;2022-11-15T05:22:42;100942.13;;;2.35;100.00
3122;BME280;1571;52.524;14.104;2022-11-15T05:25:29;100941.09;;;2.41;100.00
3122;BME280;1571;52.524;14.104;2022-11-15T05:28:16;100938.06;;;2.23;100.00
3122;BME280;1571;52.524;14.104;2022-11-15T05:31:04;100935.22;;;2.33;100.00
3122;BME280;1571;52.524;14.104;2022-11-15T05:33:51;100929.72;;;2.43;100.00
3122;BME280;1571;52.524;14.104;2022-11-15T05:36:41;100938.34;;;2.47;100.00
3122;BME280;1571;52.524;14.104;2022-11-15T05:39:30;100925.81;;;2.58;100.00
3122;BME280;1571;52.524;14.104;2022-11-15T05:42:16;100925.31;;;2.44;100.00
3122;BME280;1571;52.524;14.104;2022-11-15T05:45:06;100927.38;;;2.33;100.00
3122;BME280;1571;52.524;14.104;2022-11-15T05:47:55;100927.84;;;2.47;100.00
3122;BME280;1571;52.524;14.104;2022-11-15T05:50:45;100920.81;;;2.49;100.00
3122;BME280;1571;52.524;14.104;2022-11-15T05:53:34;100936.00;;;2.70;100.00
3122;BME280;1571;52.524;14.104;2022-11-15T05:56:21;100935.22;;;2.65;100.00
3122;BME280;1571;52.524;14.104;2022-11-15T05:59:09;100932.66;;;2.64;100.00
3122;BME280;1571;52.524;14.104;2022-11-15T06:01:56;100923.28;;;2.55;100.00
3122;BME280;1571;52.524;14.104;2022-11-15T06:04:43;100924.47;;;2.43;100.00
3122;BME280;1571;52.524;14.104;2022-11-15T06:07:30;100943.69;;;2.42;100.00
3122;BME280;1571;52.524;14.104;2022-11-15T06:10:18;100939.56;;;2.34;100.00
3122;BME280;1571;52.524;14.104;2022-11-15T06:13:05;100943.09;;;2.33;100.00
3122;BME280;1571;52.524;14.104;2022-11-15T06:15:55;100947.53;;;2.29;100.00
3122;BME280;1571;52.524;14.104;2022-11-15T06:18:41;100934.53;;;2.24;100.00
3122;BME280;1571;52.524;14.104;2022-11-15T06:21:28;100930.94;;;2.28;100.00
3122;BME280;1571;52.524;14.104;2022-11-15T06:24:17;100931.69;;;1.98;100.00
3122;BME280;1571;52.524;14.104;2022-11-15T06:27:05;100939.84;;;1.85;100.00
3122;BME280;1571;52.524;14.104;2022-11-15T06:29:52;100938.81;;;1.93;100.00
3122;BME280;1571;52.524;14.104;2022-11-15T06:32:39;100948.22;;;2.01;100.00
3122;BME280;1571;52.524;14.104;2022-11-15T06:35:26;100940.53;;;1.94;100.00
3122;BME280;1571;52.524;14.104;2022-11-15T06:38:13;100941.44;;;1.91;100.00
3122;BME280;1571;52.524;14.104;2022-11-15T06:41:01;100944.34;;;1.80;100.00
3122;BME280;1571;52.524;14.104;2022-11-15T06:43:49;100948.66;;;1.81;100.00
3122;BME280;1571;52.524;14.104;2022-11-15T06:46:36;100945.19;;;1.81;100.00
3122;BME280;1571;52.524;14.104;2022-11-15T06:49:22;100936.81;;;1.65;100.00
3122;BME280;1571;52.524;14.104;2022-11-15T06:52:09;100948.03;;;1.70;100.00
3122;BME280;1571;52.524;14.104;2022-11-15T06:54:55;100940.28;;;1.67;100.00
3122;BME280;1571;52.524;14.104;2022-11-15T06:57:49;100934.00;;;1.74;100.00
3122;BME280;1571;52.524;14.104;2022-11-15T07:00:37;100934.84;;;1.75;100.00
3122;BME280;1571;52.524;14.104;2022-11-15T07:03:24;100939.16;;;1.77;100.00
3122;BME280;1571;52.524;14.104;2022-11-15T07:06:11;100940.47;;;1.95;100.00
3122;BME280;1571;52.524;14.104;2022-11-15T07:08:57;100931.91;;;1.88;100.00
3122;BME280;1571;52.524;14.104;2022-11-15T07:11:44;100939.97;;;1.79;100.00
3122;BME280;1571;52.524;14.104;2022-11-15T07:14:31;100938.31;;;1.36;100.00
3122;BME280;1571;52.524;14.104;2022-11-15T07:17:19;100945.13;;;1.43;100.00
3122;BME280;1571;52.524;14.104;2022-11-15T07:20:07;100944.75;;;1.99;100.00
3122;BME280;1571;52.524;14.104;2022-11-15T07:22:59;100945.69;;;1.97;100.00
3122;BME280;1571;52.524;14.104;2022-11-15T07:25:46;100946.53;;;1.97;100.00
3122;BME280;1571;52.524;14.104;2022-11-15T07:28:34;100941.53;;;2.25;100.00
3122;BME280;1571;52.524;14.104;2022-11-15T07:31:21;100938.59;;;2.36;100.00
3122;BME280;1571;52.524;14.104;2022-11-15T07:34:09;100942.75;;;2.45;100.00
3122;BME280;1571;52.524;14.104;2022-11-15T07:36:56;100937.28;;;2.54;100.00
3122;BME280;1571;52.524;14.104;2022-11-15T07:39:43;100930.25;;;2.56;100.00
3122;BME280;1571;52.524;14.104;2022-11-15T07:42:30;100932.59;;;2.65;100.00
3122;BME280;1571;52.524;14.104;2022-11-15T07:45:40;100932.88;;;2.89;100.00
3122;BME280;1571;52.524;14.104;2022-11-15T07:48:26;100937.31;;;2.85;100.00
3122;BME280;1571;52.524;14.104;2022-11-15T07:51:29;100934.91;;;2.78;100.00
3122;BME280;1571;52.524;14.104;2022-11-15T07:54:16;100946.53;;;3.00;100.00
3122;BME280;1571;52.524;14.104;2022-11-15T07:57:02;100941.19;;;3.03;100.00
3122;BME280;1571;52.524;14.104;2022-11-15T07:59:52;100949.03;;;3.36;100.00
3122;BME280;1571;52.524;14.104;2022-11-15T08:02:39;100948.47;;;3.54;100.00
3122;BME280;1571;52.524;14.104;2022-11-15T08:05:25;100949.72;;;3.71;100.00
3122;BME280;1571;52.524;14.104;2022-11-15T08:08:14;100952.84;;;3.84;100.00
3122;BME280;1571;52.524;14.104;2022-11-15T08:11:00;100949.63;;;4.02;100.00
3122;BME280;1571;52.524;14.104;2022-11-15T08:13:47;100948.38;;;4.14;100.00
3122;BME280;1571;52.524;14.104;2022-11-15T08:16:34;100943.69;;;4.24;100.00
3122;BME280;1571;52.524;14.104;2022-11-15T08:19:21;100936.97;;;4.42;100.00
3122;BME280;1571;52.524;14.104;2022-11-15T08:22:07;100934.91;;;4.50;100.00
3122;BME280;1571;52.524;14.104;2022-11-15T08:24:55;100930.94;;;4.63;100.00
3122;BME280;1571;52.524;14.104;2022-11-15T08:27:42;100926.13;;;4.76;100.00
3122;BME280;1571;52.524;14.104;2022-11-15T08:30:30;100930.78;;;4.93;100.00
3122;BME280;1571;52.524;14.104;2022-11-15T08:33:22;100936.25;;;5.12;100.00
3122;BME280;1571;52.524;14.104;2022-11-15T08:36:12;100934.25;;;5.18;100.00
3122;BME280;1571;52.524;14.104;2022-11-15T08:38:59;100932.75;;;5.35;100.00
3122;BME280;1571;52.524;14.104;2022-11-15T08:41:47;100940.97;;;5.49;100.00
3122;BME280;1571;52.524;14.104;2022-11-15T08:44:34;100942.22;;;5.62;100.00
3122;BME280;1571;52.524;14.104;2022-11-15T08:47:21;100938.38;;;5.71;100.00
3122;BME280;1571;52.524;14.104;2022-11-15T08:50:08;100933.63;;;5.81;100.00
3122;BME280;1571;52.524;14.104;2022-11-15T08:52:55;100933.59;;;6.04;100.00
3122;BME280;1571;52.524;14.104;2022-11-15T08:55:41;100930.31;;;6.20;100.00
3122;BME280;1571;52.524;14.104;2022-11-15T08:58:29;100923.69;;;6.32;100.00
3122;BME280;1571;52.524;14.104;2022-11-15T09:01:18;100922.28;;;6.43;100.00
3122;BME280;1571;52.524;14.104;2022-11-15T09:04:05;100912.28;;;6.52;100.00
3122;BME280;1571;52.524;14.104;2022-11-15T09:06:52;100915.19;;;6.45;100.00
3122;BME280;1571;52.524;14.104;2022-11-15T09:09:39;100915.47;;;6.80;100.00
3122;BME280;1571;52.524;14.104;2022-11-15T09:12:25;100914.88;;;6.74;100.00
3122;BME280;1571;52.524;14.104;2022-11-15T09:15:14;100913.41;;;6.87;100.00
3122;BME280;1571;52.524;14.104;2022-11-15T09:18:01;100919.06;;;6.98;100.00
3122;BME280;1571;52.524;14.104;2022-11-15T09:20:48;100916.28;;;7.20;100.00
3122;BME280;1571;52.524;14.104;2022-11-15T09:23:34;100910.53;;;7.31;100.00
3122;BME280;1571;52.524;14.104;2022-11-15T09:26:21;100917.38;;;7.54;100.00
3122;BME280;1571;52.524;14.104;2022-11-15T09:29:08;100911.13;;;7.57;100.00
3122;BME280;1571;52.524;14.104;2022-11-15T09:31:56;100901.00;;;7.65;100.00
3122;BME280;1571;52.524;14.104;2022-11-15T09:34:43;100888.06;;;7.78;100.00
3122;BME280;1571;52.524;14.104;2022-11-15T09:37:31;100890.91;;;7.92;100.00
3122;BME280;1571;52.524;14.104;2022-11-15T09:40:18;100897.72;;;8.15;100.00
3122;BME280;1571;52.524;14.104;2022-11-15T09:43:25;100879.09;;;8.17;100.00
3122;BME280;1571;52.524;14.104;2022-11-15T09:46:17;100873.06;;;8.32;100.00
3122;BME280;1571;52.524;14.104;2022-11-15T09:49:11;100874.34;;;8.42;100.00
3122;BME280;1571;52.524;14.104;2022-11-15T09:52:03;100873.84;;;8.51;100.00
3122;BME280;1571;52.524;14.104;2022-11-15T09:54:33;100871.03;;;8.54;100.00
3122;BME280;1571;52.524;14.104;2022-11-15T09:57:24;100862.63;;;8.64;100.00
3122;BME280;1571;52.524;14.104;2022-11-15T10:00:13;100856.84;;;8.73;100.00
3122;BME280;1571;52.524;14.104;2022-11-15T10:03:11;100855.31;;;8.85;100.00
3122;BME280;1571;52.524;14.104;2022-11-15T10:05:42;100851.72;;;8.70;100.00
3122;BME280;1571;52.524;14.104;2022-11-15T10:08:27;100849.03;;;8.87;100.00
3122;BME280;1571;52.524;14.104;2022-11-15T10:10:59;100836.59;;;8.89;100.00
3122;BME280;1571;52.524;14.104;2022-11-15T10:13:50;100835.06;;;9.01;100.00
3122;BME280;1571;52.524;14.104;2022-11-15T10:16:41;100822.72;;;9.00;100.00
3122;BME280;1571;52.524;14.104;2022-11-15T10:19:19;100820.25;;;8.97;100.00
3122;BME280;1571;52.524;14.104;2022-11-15T10:21:58;100819.69;;;9.08;100.00
3122;BME280;1571;52.524;14.104;2022-11-15T10:24:34;100818.59;;;9.12;100.00
3122;BME280;1571;52.524;14.104;2022-11-15T10:27:07;100806.59;;;9.05;100.00
3122;BME280;1571;52.524;14.104;2022-11-15T10:29:42;100799.53;;;9.21;100.00
3122;BME280;1571;52.524;14.104;2022-11-15T10:32:11;100793.34;;;9.05;100.00
3122;BME280;1571;52.524;14.104;2022-11-15T10:34:39;100792.16;;;9.10;100.00
3122;BME280;1571;52.524;14.104;2022-11-15T10:37:09;100783.97;;;9.31;100.00
3122;BME280;1571;52.524;14.104;2022-11-15T10:39:38;100775.16;;;9.30;100.00
3122;BME280;1571;52.524;14.104;2022-11-15T10:42:22;100778.06;;;9.42;100.00
3122;BME280;1571;52.524;14.104;2022-11-15T10:44:53;100770.25;;;9.54;100.00
3122;BME280;1571;52.524;14.104;2022-11-15T10:47:24;100768.09;;;9.61;100.00
3122;BME280;1571;52.524;14.104;2022-11-15T10:49:58;100766.06;;;9.66;100.00
3122;BME280;1571;52.524;14.104;2022-11-15T10:52:30;100758.53;;;9.89;100.00
3122;BME280;1571;52.524;14.104;2022-11-15T10:55:03;100751.66;;;10.00;100.00
3122;BME280;1571;52.524;14.104;2022-11-15T10:57:35;100753.81;;;10.08;100.00
3122;BME280;1571;52.524;14.104;2022-11-15T11:00:06;100755.63;;;10.08;100.00
3122;BME280;1571;52.524;14.104;2022-11-15T11:02:37;100745.28;;;9.89;100.00
3122;BME280;1571;52.524;14.104;2022-11-15T11:05:26;100742.66;;;10.03;100.00
3122;BME280;1571;52.524;14.104;2022-11-15T11:07:58;100745.16;;;9.90;100.00
3122;BME280;1571;52.524;14.104;2022-11-15T11:10:27;100740.75;;;10.05;100.00
3122;BME280;1571;52.524;14.104;2022-11-15T11:13:22;100740.78;;;10.19;100.00
3122;BME280;1571;52.524;14.104;2022-11-15T11:15:54;100729.63;;;10.29;100.00
3122;BME280;1571;52.524;14.104;2022-11-15T11:18:27;100729.22;;;10.20;100.00
3122;BME280;1571;52.524;14.104;2022-11-15T11:21:03;100729.63;;;10.29;100.00
3122;BME280;1571;52.524;14.104;2022-11-15T11:23:43;100722.72;;;10.40;100.00
3122;BME280;1571;52.524;14.104;2022-11-15T11:26:24;100733.41;;;10.53;100.00
3122;BME280;1571;52.524;14.104;2022-11-15T11:29:04;100720.72;;;10.58;100.00
3122;BME280;1571;52.524;14.104;2022-11-15T11:31:42;100723.75;;;10.67;100.00
3122;BME280;1571;52.524;14.104;2022-11-15T11:34:17;100713.69;;;10.72;99.56
3122;BME280;1571;52.524;14.104;2022-11-15T11:36:54;100706.94;;;10.80;99.27
3122;BME280;1571;52.524;14.104;2022-11-15T11:39:37;100709.09;;;10.88;98.83
3122;BME280;1571;52.524;14.104;2022-11-15T11:42:17;100717.06;;;10.88;98.73
3122;BME280;1571;52.524;14.104;2022-11-15T11:45:02;100695.59;;;11.06;98.07
3122;BME280;1571;52.524;14.104;2022-11-15T11:47:32;100703.59;;;10.91;98.02
3122;BME280;1571;52.524;14.104;2022-11-15T11:50:11;100696.47;;;10.92;97.75
3122;BME280;1571;52.524;14.104;2022-11-15T11:52:44;100703.72;;;10.75;97.81
3122;BME280;1571;52.524;14.104;2022-11-15T11:55:31;100700.69;;;11.09;97.83
3122;BME280;1571;52.524;14.104;2022-11-15T11:58:06;100690.22;;;11.20;96.57
3122;BME280;1571;52.524;14.104;2022-11-15T12:00:40;100699.19;;;11.04;96.33
3122;BME280;1571;52.524;14.104;2022-11-15T12:03:13;100688.56;;;11.04;96.08
3122;BME280;1571;52.524;14.104;2022-11-15T12:05:44;100678.69;;;11.07;96.36
3122;BME280;1571;52.524;14.104;2022-11-15T12:08:24;100679.53;;;11.07;96.26
3122;BME280;1571;52.524;14.104;2022-11-15T12:11:02;100677.53;;;11.11;96.18
3122;BME280;1571;52.524;14.104;2022-11-15T12:13:33;100676.84;;;11.21;96.68
3122;BME280;1571;52.524;14.104;2022-11-15T12:16:10;100672.97;;;11.13;96.99
3122;BME280;1571;52.524;14.104;2022-11-15T12:18:44;100676.78;;;11.09;97.11
3122;BME280;1571;52.524;14.104;2022-11-15T12:21:19;100677.56;;;10.96;97.60
3122;BME280;1571;52.524;14.104;2022-11-15T12:23:59;100676.25;;;11.03;97.60
3122;BME280;1571;52.524;14.104;2022-11-15T12:26:34;100671.94;;;11.15;97.83
3122;BME280;1571;52.524;14.104;2022-11-15T12:29:10;100672.09;;;10.99;97.71
3122;BME280;1571;52.524;14.104;2022-11-15T12:31:42;100662.31;;;11.00;98.00
3122;BME280;1571;52.524;14.104;2022-11-15T12:36:59;100657.19;;;10.97;97.73
3122;BME280;1571;52.524;14.104;2022-11-15T12:42:40;100653.22;;;11.17;96.67
3122;BME280;1571;52.524;14.104;2022-11-15T12:45:25;100647.03;;;11.03;96.98
3122;BME280;1571;52.524;14.104;2022-11-15T12:47:56;100656.91;;;11.14;97.68
3122;BME280;1571;52.524;14.104;2022-11-15T12:50:53;100661.91;;;10.79;99.96
3122;BME280;1571;52.524;14.104;2022-11-15T12:53:29;100652.47;;;10.46;100.00
3122;BME280;1571;52.524;14.104;2022-11-15T12:56:19;100650.41;;;10.37;100.00
3122;BME280;1571;52.524;14.104;2022-11-15T12:58:52;100652.84;;;10.40;100.00
3122;BME280;1571;52.524;14.104;2022-11-15T13:01:52;100649.94;;;10.30;100.00
3122;BME280;1571;52.524;14.104;2022-11-15T13:04:28;100643.19;;;10.39;100.00
3122;BME280;1571;52.524;14.104;2022-11-15T13:06:59;100632.22;;;10.31;100.00
3122;BME280;1571;52.524;14.104;2022-11-15T13:09:51;100631.81;;;10.23;100.00
3122;BME280;1571;52.524;14.104;2022-11-15T13:12:50;100626.31;;;10.26;100.00
3122;BME280;1571;52.524;14.104;2022-11-15T13:18:34;100627.28;;;10.39;100.00
3122;BME280;1571;52.524;14.104;2022-11-15T13:21:05;100621.59;;;10.16;100.00
3122;BME280;1571;52.524;14.104;2022-11-15T13:23:55;100621.38;;;10.19;100.00
3122;BME280;1571;52.524;14.104;2022-11-15T13:26:23;100619.13;;;10.13;100.00
3122;BME280;1571;52.524;14.104;2022-11-15T13:28:52;100632.59;;;9.96;100.00
3122;BME280;1571;52.524;14.104;2022-11-15T13:31:34;100623.94;;;9.92;100.00
3122;BME280;1571;52.524;14.104;2022-11-15T13:34:23;100626.31;;;9.83;100.00
3122;BME280;1571;52.524;14.104;2022-11-15T13:37:28;100624.06;;;9.91;100.00
3122;BME280;1571;52.524;14.104;2022-11-15T13:40:15;100628.97;;;9.83;100.00
3122;BME280;1571;52.524;14.104;2022-11-15T13:42:46;100629.75;;;9.85;100.00
3122;BME280;1571;52.524;14.104;2022-11-15T13:45:17;100631.16;;;9.76;100.00
3122;BME280;1571;52.524;14.104;2022-11-15T13:47:51;100627.44;;;9.64;100.00
3122;BME280;1571;52.524;14.104;2022-11-15T13:50:23;100621.94;;;9.67;100.00
3122;BME280;1571;52.524;14.104;2022-11-15T13:52:53;100626.84;;;9.45;100.00
3122;BME280;1571;52.524;14.104;2022-11-15T13:55:25;100624.03;;;9.62;100.00
3122;BME280;1571;52.524;14.104;2022-11-15T13:57:56;100627.59;;;9.47;100.00
3122;BME280;1571;52.524;14.104;2022-11-15T14:00:33;100627.09;;;9.26;100.00
3122;BME280;1571;52.524;14.104;2022-11-15T14:03:07;100638.03;;;9.20;100.00
3122;BME280;1571;52.524;14.104;2022-11-15T14:05:37;100634.91;;;9.27;100.00
3122;BME280;1571;52.524;14.104;2022-11-15T14:08:22;100634.63;;;9.17;100.00
3122;BME280;1571;52.524;14.104;2022-11-15T14:11:06;100647.59;;;9.22;100.00
3122;BME280;1571;52.524;14.104;2022-11-15T14:13:35;100648.13;;;9.13;100.00
3122;BME280;1571;52.524;14.104;2022-11-15T14:16:14;100638.50;;;9.12;100.00
3122;BME280;1571;52.524;14.104;2022-11-15T14:18:45;100643.59;;;9.15;100.00
3122;BME280;1571;52.524;14.104;2022-11-15T14:21:16;100641.28;;;9.09;100.00
3122;BME280;1571;52.524;14.104;2022-11-15T14:23:45;100639.72;;;8.90;100.00
3122;BME280;1571;52.524;14.104;2022-11-15T14:26:27;100640.81;;;8.86;100.00
3122;BME280;1571;52.524;14.104;2022-11-15T14:28:56;100640.50;;;8.77;100.00
3122;BME280;1571;52.524;14.104;2022-11-15T14:31:24;100645.28;;;8.86;100.00
3122;BME280;1571;52.524;14.104;2022-11-15T14:33:52;100641.59;;;8.88;100.00
3122;BME280;1571;52.524;14.104;2022-11-15T14:36:22;100634.69;;;8.70;100.00
3122;BME280;1571;52.524;14.104;2022-11-15T14:38:50;100627.69;;;8.69;100.00
3122;BME280;1571;52.524;14.104;2022-11-15T14:41:20;100638.63;;;8.63;100.00
3122;BME280;1571;52.524;14.104;2022-11-15T14:43:49;100629.75;;;8.48;100.00